createdAt,value
2023-01-03T00:01:44.600Z,23.05
2023-01-03T00:04:13.444Z,18.00
2023-01-03T00:06:46.434Z,19.27
2023-01-03T00:09:18.718Z,23.38
2023-01-03T00:12:07.560Z,19.13
2023-01-03T00:14:40.038Z,21.35
2023-01-03T00:17:10.212Z,18.67
2023-01-03T00:19:44.114Z,18.13
2023-01-03T00:22:14.211Z,21.98
2023-01-03T00:24:43.524Z,18.67
2023-01-03T00:27:11.550Z,16.85
2023-01-03T00:29:39.873Z,19.60
2023-01-03T00:32:08.124Z,19.17
2023-01-03T00:34:36.076Z,16.10
2023-01-03T00:37:03.770Z,19.95
2023-01-03T00:39:31.256Z,16.50
2023-01-03T00:41:58.728Z,17.30
2023-01-03T00:44:26.267Z,18.48
2023-01-03T00:46:53.917Z,21.50
2023-01-03T00:49:21.540Z,18.25
2023-01-03T00:51:49.511Z,14.77
2023-01-03T00:54:17.139Z,17.38
2023-01-03T00:56:47.482Z,18.08
2023-01-03T00:59:17.477Z,15.30
2023-01-03T01:01:52.102Z,20.35
2023-01-03T01:04:27.262Z,15.23
2023-01-03T01:06:59.217Z,16.77
2023-01-03T01:09:34.636Z,17.92
2023-01-03T01:12:03.584Z,13.95
2023-01-03T01:14:33.563Z,16.55
2023-01-03T01:17:08.200Z,17.75
2023-01-03T01:19:40.685Z,17.92
2023-01-03T01:22:09.406Z,19.08
2023-01-03T01:24:37.363Z,15.18
2023-01-03T01:27:04.986Z,20.98
2023-01-03T01:29:32.495Z,18.10
2023-01-03T01:31:59.988Z,17.02
2023-01-03T01:34:27.551Z,17.08
2023-01-03T01:36:55.134Z,14.88
2023-01-03T01:39:26.377Z,23.38
2023-01-03T01:42:27.332Z,17.70
2023-01-03T01:45:04.349Z,17.83
2023-01-03T01:47:48.425Z,18.73
2023-01-03T01:50:49.079Z,16.98
2023-01-03T01:53:28.703Z,17.08
2023-01-03T01:56:10.881Z,18.27
2023-01-03T01:58:42.368Z,18.95
2023-01-03T02:01:16.477Z,18.00
2023-01-03T02:03:55.427Z,16.48
2023-01-03T02:06:24.793Z,16.60
2023-01-03T02:08:52.246Z,16.23
2023-01-03T02:11:48.778Z,17.02
2023-01-03T02:14:55.804Z,15.98
2023-01-03T02:18:12.680Z,17.60
2023-01-03T02:20:53.372Z,16.63
2023-01-03T02:24:20.979Z,22.42
2023-01-03T02:27:07.991Z,16.40
2023-01-03T02:30:16.248Z,21.13
2023-01-03T02:33:47.282Z,17.58
2023-01-03T02:36:22.208Z,16.40
2023-01-03T02:39:12.766Z,17.85
2023-01-03T02:42:16.782Z,17.75
2023-01-03T02:45:12.854Z,23.10
2023-01-03T02:47:57.801Z,21.65
2023-01-03T02:50:31.334Z,19.25
2023-01-03T02:53:08.603Z,20.70
2023-01-03T02:55:40.540Z,20.88
2023-01-03T02:58:18.124Z,23.65
2023-01-03T03:00:52.959Z,20.65
2023-01-03T03:03:28.788Z,22.02
2023-01-03T03:06:15.190Z,21.63
2023-01-03T03:08:48.914Z,21.10
2023-01-03T03:11:35.556Z,19.50
2023-01-03T03:14:17.823Z,23.13
2023-01-03T03:19:49.374Z,23.02
2023-01-03T03:23:02.925Z,23.88
2023-01-03T03:25:43.298Z,20.08
2023-01-03T03:28:35.688Z,22.67
2023-01-03T03:31:32.291Z,23.00
2023-01-03T03:34:29.305Z,20.42
2023-01-03T03:37:09.809Z,21.25
2023-01-03T03:39:56.524Z,19.63
2023-01-03T03:43:03.600Z,24.73
2023-01-03T03:45:44.967Z,20.30
2023-01-03T03:49:03.984Z,22.20
2023-01-03T03:51:36.205Z,22.02
2023-01-03T03:54:11.173Z,22.88
2023-01-03T03:56:46.623Z,20.88
2023-01-03T03:59:20.209Z,23.73
2023-01-03T04:01:50.117Z,22.70
2023-01-03T04:04:27.094Z,21.20
2023-01-03T04:06:54.828Z,20.80
2023-01-03T04:09:22.454Z,23.52
2023-01-03T04:11:49.977Z,23.38
2023-01-03T04:14:17.388Z,20.05
2023-01-03T04:16:44.971Z,20.90
2023-01-03T04:19:12.909Z,21.63
2023-01-03T04:21:40.467Z,20.10
2023-01-03T04:24:08.552Z,25.45
2023-01-03T04:26:36.045Z,18.35
2023-01-03T04:29:03.494Z,22.50
2023-01-03T04:31:31.133Z,20.60
2023-01-03T04:33:58.644Z,21.73
2023-01-03T04:36:26.176Z,26.10
2023-01-03T04:38:53.592Z,21.42
2023-01-03T04:41:21.052Z,22.58
2023-01-03T04:44:04.544Z,18.75
2023-01-03T04:46:39.052Z,19.17
2023-01-03T04:49:09.709Z,20.35
2023-01-03T04:51:38.042Z,21.60
2023-01-03T04:54:06.660Z,21.20
2023-01-03T04:56:36.974Z,19.65
2023-01-03T04:59:05.424Z,25.02
2023-01-03T05:01:33.253Z,24.70
2023-01-03T05:04:02.379Z,19.70
2023-01-03T05:06:30.053Z,22.85
2023-01-03T05:08:57.725Z,20.70
2023-01-03T05:11:25.372Z,22.65
2023-01-03T05:13:52.908Z,19.63
2023-01-03T05:16:20.646Z,22.45
2023-01-03T05:18:51.247Z,17.58
2023-01-03T05:21:40.475Z,20.40
2023-01-03T05:24:47.035Z,20.90
2023-01-03T05:27:14.706Z,25.40
2023-01-03T05:29:44.114Z,20.27
2023-01-03T05:32:12.038Z,21.27
2023-01-03T05:34:39.511Z,21.48
2023-01-03T05:37:06.999Z,20.10
2023-01-03T05:39:34.495Z,21.05
2023-01-03T05:42:02.074Z,20.73
2023-01-03T05:44:34.076Z,23.30
2023-01-03T05:47:04.685Z,28.60
2023-01-03T05:49:33.500Z,19.15
2023-01-03T05:52:01.013Z,18.85
2023-01-03T05:54:28.457Z,19.17
2023-01-03T05:56:55.954Z,21.70
2023-01-03T05:59:23.910Z,19.92
2023-01-03T06:01:51.505Z,21.55
2023-01-03T06:04:19.287Z,20.17
2023-01-03T06:06:48.364Z,18.83
2023-01-03T06:09:15.993Z,25.65
2023-01-03T06:11:43.646Z,20.75
2023-01-03T06:14:11.148Z,19.13
2023-01-03T06:16:57.160Z,22.98
2023-01-03T06:19:24.891Z,18.75
2023-01-03T06:21:52.394Z,21.40
2023-01-03T06:24:19.979Z,19.77
2023-01-03T06:26:47.433Z,22.02
2023-01-03T06:29:14.891Z,21.17
2023-01-03T06:31:42.421Z,18.48
2023-01-03T06:34:09.911Z,22.80
2023-01-03T06:36:37.530Z,19.27
2023-01-03T06:39:04.979Z,26.30
2023-01-03T06:41:32.504Z,21.23
2023-01-03T06:44:00.040Z,28.95
2023-01-03T06:46:53.640Z,21.85
2023-01-03T06:49:39.838Z,20.65
2023-01-03T06:52:33.223Z,19.52
2023-01-03T06:55:02.040Z,20.50
2023-01-03T06:57:29.477Z,22.30
2023-01-03T06:59:57.152Z,24.73
2023-01-03T07:02:24.828Z,19.67
2023-01-03T07:04:52.555Z,22.15
2023-01-03T07:07:20.104Z,18.10
2023-01-03T07:09:47.670Z,23.75
2023-01-03T07:12:38.515Z,21.20
2023-01-03T07:15:06.788Z,20.98
2023-01-03T07:17:34.339Z,20.23
2023-01-03T07:20:01.823Z,21.42
2023-01-03T07:22:29.383Z,22.42
2023-01-03T07:24:56.893Z,20.73
2023-01-03T07:27:24.410Z,22.38
2023-01-03T07:29:51.943Z,19.15
2023-01-03T07:32:19.542Z,21.05
2023-01-03T07:34:46.990Z,19.20
2023-01-03T07:37:14.538Z,21.85
2023-01-03T07:39:41.987Z,19.38
2023-01-03T07:42:27.992Z,22.45
2023-01-03T07:44:58.895Z,21.85
2023-01-03T07:47:26.398Z,20.77
2023-01-03T07:49:53.984Z,19.70
2023-01-03T07:52:21.584Z,22.10
2023-01-03T07:54:49.174Z,22.02
2023-01-03T07:57:16.655Z,19.45
2023-01-03T07:59:44.163Z,20.13
2023-01-03T08:02:11.840Z,18.25
2023-01-03T08:04:39.543Z,20.15
2023-01-03T08:07:07.096Z,19.48
2023-01-03T08:09:53.129Z,18.15
2023-01-03T08:12:39.265Z,21.58
2023-01-03T08:15:07.217Z,20.23
2023-01-03T08:17:34.656Z,18.38
2023-01-03T08:20:02.094Z,19.73
2023-01-03T08:22:29.751Z,18.90
2023-01-03T08:24:57.226Z,21.00
2023-01-03T08:27:24.829Z,18.83
2023-01-03T08:29:52.440Z,17.48
2023-01-03T08:32:21.266Z,19.00
2023-01-03T08:34:49.896Z,20.33
2023-01-03T08:37:18.205Z,21.75
2023-01-03T08:40:02.238Z,17.38
2023-01-03T08:42:29.845Z,18.80
2023-01-03T08:45:09.438Z,18.38
2023-01-03T08:47:37.873Z,16.35
2023-01-03T08:50:06.231Z,23.30
2023-01-03T08:52:35.498Z,22.23
2023-01-03T08:55:05.037Z,24.77
2023-01-03T08:57:32.616Z,18.85
2023-01-03T09:00:00.160Z,17.58
2023-01-03T09:02:28.019Z,19.60
2023-01-03T09:04:55.618Z,17.02
2023-01-03T09:07:23.164Z,20.55
2023-01-03T09:09:50.607Z,17.88
2023-01-03T09:12:18.069Z,18.33
2023-01-03T09:14:45.570Z,16.58
2023-01-03T09:17:13.113Z,21.13
2023-01-03T09:19:40.599Z,19.92
2023-01-03T09:22:08.060Z,18.13
2023-01-03T09:24:35.594Z,17.80
2023-01-03T09:27:03.052Z,15.48
2023-01-03T09:29:30.588Z,18.92
2023-01-03T09:32:00.912Z,16.65
2023-01-03T09:34:28.778Z,18.85
2023-01-03T09:36:56.386Z,17.05
2023-01-03T09:39:23.951Z,16.80
2023-01-03T09:42:11.698Z,17.08
2023-01-03T09:44:41.307Z,15.95
2023-01-03T09:47:22.730Z,15.77
2023-01-03T09:50:26.708Z,15.85
2023-01-03T09:53:04.031Z,16.00
2023-01-03T09:56:06.656Z,16.90
2023-01-03T09:58:53.441Z,16.95
2023-01-03T10:01:50.189Z,15.32
2023-01-03T10:04:36.537Z,16.30
2023-01-03T10:07:29.524Z,18.20
2023-01-03T10:10:22.060Z,20.48
2023-01-03T10:13:23.924Z,21.05
2023-01-03T10:16:16.901Z,17.38
2023-01-03T10:19:14.995Z,19.02
2023-01-03T10:21:59.157Z,16.25
2023-01-03T10:24:43.494Z,17.63
2023-01-03T10:27:25.174Z,18.33
2023-01-03T10:30:02.269Z,16.67
2023-01-03T10:33:08.658Z,20.67
2023-01-03T10:35:37.395Z,18.15
2023-01-03T10:38:05.022Z,18.60
2023-01-03T10:41:00.779Z,18.48
2023-01-03T10:43:55.932Z,17.40
2023-01-03T10:46:25.478Z,16.25
2023-01-03T10:51:47.230Z,18.97
2023-01-03T10:54:17.791Z,15.52
2023-01-03T10:56:47.693Z,14.80
2023-01-03T10:59:27.454Z,13.40
2023-01-03T11:02:16.650Z,18.10
2023-01-03T11:04:45.077Z,15.43
2023-01-03T11:07:16.950Z,12.98
2023-01-03T11:09:54.424Z,16.45
2023-01-03T11:12:36.362Z,16.30
2023-01-03T11:15:39.492Z,15.35
2023-01-03T11:18:18.349Z,16.23
2023-01-03T11:21:23.427Z,15.75
2023-01-03T11:24:01.512Z,15.95
2023-01-03T11:27:15.028Z,13.73
2023-01-03T11:30:13.450Z,15.20
2023-01-03T11:32:43.897Z,15.35
2023-01-03T11:35:36.405Z,13.73
2023-01-03T11:38:38.368Z,13.82
2023-01-03T11:41:48.162Z,14.95
2023-01-03T11:44:31.506Z,12.45
2023-01-03T11:47:26.977Z,13.27
2023-01-03T11:50:24.955Z,13.07
2023-01-03T11:53:53.052Z,14.55
2023-01-03T11:56:34.860Z,11.82
2023-01-03T12:02:50.215Z,14.85
2023-01-03T12:05:40.488Z,12.05
2023-01-03T12:08:34.570Z,10.65
2023-01-03T12:11:32.846Z,14.65
2023-01-03T12:14:26.329Z,9.48
2023-01-03T12:17:15.591Z,12.90
2023-01-03T12:19:52.581Z,15.35
2023-01-03T12:22:43.229Z,13.70
2023-01-03T12:25:29.849Z,10.68
2023-01-03T12:28:11.400Z,11.10
2023-01-03T12:30:58.906Z,12.68
2023-01-03T12:33:39.029Z,12.70
2023-01-03T12:36:42.507Z,11.70
2023-01-03T12:39:33.688Z,12.70
2023-01-03T12:42:29.217Z,11.77
2023-01-03T12:45:38.690Z,11.68
2023-01-03T12:48:23.340Z,12.90
2023-01-03T12:50:53.104Z,10.40
2023-01-03T12:54:01.091Z,13.40
2023-01-03T12:56:50.376Z,15.82
2023-01-03T12:59:47.797Z,14.30
2023-01-03T13:02:47.603Z,11.82
2023-01-03T13:05:50.494Z,16.40
2023-01-03T13:08:42.961Z,11.40
2023-01-03T13:11:30.583Z,12.77
2023-01-03T13:14:06.766Z,14.25
2023-01-03T13:16:34.322Z,14.70
2023-01-03T13:19:20.174Z,15.13
2023-01-03T13:21:53.661Z,11.93
2023-01-03T13:24:43.269Z,13.88
2023-01-03T13:27:25.937Z,14.45
2023-01-03T13:29:59.605Z,14.45
2023-01-03T13:32:36.298Z,17.50
2023-01-03T13:35:05.388Z,14.43
2023-01-03T13:37:51.348Z,13.68
2023-01-03T13:41:07.923Z,13.05
2023-01-03T13:45:59.656Z,13.50
2023-01-03T13:48:32.488Z,10.77
2023-01-03T13:51:16.315Z,11.45
2023-01-03T13:54:25.323Z,10.68
2023-01-03T13:56:52.803Z,9.27
2023-01-03T13:59:32.082Z,10.77
2023-01-03T14:02:50.106Z,9.30
2023-01-03T14:05:58.706Z,11.02
2023-01-03T14:08:46.306Z,7.22
2023-01-03T14:11:54.546Z,6.45
2023-01-03T14:14:29.586Z,6.47
2023-01-03T14:16:58.784Z,6.35
2023-01-03T14:19:32.472Z,7.07
2023-01-03T14:22:28.656Z,7.28
2023-01-03T14:24:57.948Z,9.43
2023-01-03T14:27:35.247Z,7.60
2023-01-03T14:30:02.959Z,8.23
2023-01-03T14:32:37.390Z,7.97
2023-01-03T14:35:05.467Z,7.45
2023-01-03T14:37:34.970Z,6.10
2023-01-03T14:40:06.841Z,9.50
2023-01-03T14:42:34.369Z,8.68
2023-01-03T14:45:06.690Z,8.48
2023-01-03T14:47:43.295Z,8.40
2023-01-03T14:50:19.222Z,8.98
2023-01-03T14:52:54.974Z,8.02
2023-01-03T14:55:28.768Z,10.85
2023-01-03T14:57:58.367Z,9.60
2023-01-03T15:00:34.523Z,8.05
2023-01-03T15:03:04.214Z,7.85
2023-01-03T15:05:39.465Z,8.73
2023-01-03T15:08:26.252Z,8.52
2023-01-03T15:11:08.876Z,9.73
2023-01-03T15:13:48.585Z,7.25
2023-01-03T15:16:25.923Z,7.10
2023-01-03T15:19:06.738Z,11.30
2023-01-03T15:21:34.480Z,7.00
2023-01-03T15:24:02.132Z,6.57
2023-01-03T15:26:48.340Z,7.72
2023-01-03T15:29:25.579Z,8.35
2023-01-03T15:32:00.939Z,9.43
2023-01-03T15:34:28.484Z,12.02
2023-01-03T15:37:19.266Z,9.15
2023-01-03T15:39:52.363Z,8.98
2023-01-03T15:42:45.984Z,10.95
2023-01-03T15:45:33.197Z,10.20
2023-01-03T15:48:03.435Z,8.05
2023-01-03T15:53:26.241Z,7.60
2023-01-03T15:56:01.605Z,8.05
2023-01-03T15:58:30.654Z,11.20
2023-01-03T16:01:00.746Z,10.27
2023-01-03T16:03:32.939Z,8.32
2023-01-03T16:06:01.397Z,6.90
2023-01-03T16:08:33.236Z,13.75
2023-01-03T16:11:06.880Z,10.30
2023-01-03T16:13:43.501Z,9.57
2023-01-03T16:16:12.054Z,9.52
2023-01-03T16:18:45.236Z,9.07
2023-01-03T16:21:14.117Z,11.63
2023-01-03T16:23:42.027Z,7.75
2023-01-03T16:26:09.676Z,7.38
2023-01-03T16:28:38.280Z,9.43
2023-01-03T16:31:32.912Z,8.95
2023-01-03T16:34:02.585Z,10.80
2023-01-03T16:36:36.435Z,7.07
2023-01-03T16:39:20.435Z,9.00
2023-01-03T16:42:08.459Z,10.07
2023-01-03T16:44:39.022Z,9.25
2023-01-03T16:47:20.242Z,11.50
2023-01-03T16:49:55.215Z,10.98
2023-01-03T16:52:28.420Z,9.13
2023-01-03T16:54:56.020Z,7.53
2023-01-03T16:57:23.511Z,9.93
2023-01-03T16:59:51.986Z,10.07
2023-01-03T17:02:19.901Z,8.73
2023-01-03T17:04:47.556Z,9.82
2023-01-03T17:07:23.719Z,9.98
2023-01-03T17:09:52.135Z,11.60
2023-01-03T17:12:22.971Z,9.93
2023-01-03T17:14:51.441Z,10.13
2023-01-03T17:17:22.664Z,11.88
2023-01-03T17:20:06.743Z,8.55
2023-01-03T17:22:34.509Z,9.73
2023-01-03T17:25:02.166Z,9.95
2023-01-03T17:27:33.169Z,8.00
2023-01-03T17:30:06.764Z,11.27
2023-01-03T17:32:34.312Z,10.18
2023-01-03T17:35:03.317Z,9.15
2023-01-03T17:37:45.463Z,11.88
2023-01-03T17:40:32.961Z,11.05
2023-01-03T17:43:02.355Z,8.52
2023-01-03T17:45:48.981Z,10.90
2023-01-03T17:48:35.036Z,14.43
2023-01-03T17:51:02.997Z,14.52
2023-01-03T17:53:30.655Z,11.85
2023-01-03T17:55:58.176Z,13.90
2023-01-03T17:58:35.811Z,11.52
2023-01-03T18:01:05.850Z,10.60
2023-01-03T18:03:34.782Z,12.18
2023-01-03T18:06:11.938Z,9.80
2023-01-03T18:08:40.277Z,10.23
2023-01-03T18:11:15.450Z,9.35
2023-01-03T18:13:44.096Z,13.45
2023-01-03T18:16:21.497Z,8.70
2023-01-03T18:18:49.606Z,9.48
2023-01-03T18:21:27.796Z,8.63
2023-01-03T18:23:59.079Z,9.38
2023-01-03T18:26:38.028Z,11.82
2023-01-03T18:29:07.469Z,8.18
2023-01-03T18:31:35.054Z,11.93
2023-01-03T18:34:05.615Z,9.90
2023-01-03T18:36:41.396Z,10.05
2023-01-03T18:39:30.100Z,9.50
2023-01-03T18:42:20.616Z,12.70
2023-01-03T18:44:48.137Z,7.28
2023-01-03T18:47:17.155Z,9.38
2023-01-03T18:49:44.658Z,8.27
2023-01-03T18:52:32.573Z,9.75
2023-01-03T18:55:00.680Z,9.68
2023-01-03T18:57:28.744Z,8.82
2023-01-03T18:59:56.186Z,11.32
2023-01-03T19:02:24.048Z,8.25
2023-01-03T19:04:52.091Z,9.00
2023-01-03T19:07:31.524Z,13.55
2023-01-03T19:10:01.287Z,9.70
2023-01-03T19:12:39.795Z,8.45
2023-01-03T19:15:24.471Z,8.77
2023-01-03T19:17:52.751Z,11.07
2023-01-03T19:20:26.520Z,8.82
2023-01-03T19:22:55.923Z,9.38
2023-01-03T19:25:26.961Z,11.10
2023-01-03T19:27:59.058Z,9.15
2023-01-03T19:30:38.251Z,8.02
2023-01-03T19:33:12.612Z,8.65
2023-01-03T19:35:42.416Z,9.25
2023-01-03T19:38:09.908Z,10.68
2023-01-03T19:40:42.938Z,10.90
2023-01-03T19:43:24.176Z,11.70
2023-01-03T19:45:51.699Z,9.85
2023-01-03T19:48:24.121Z,12.27
2023-01-03T19:50:53.062Z,8.50
2023-01-03T19:53:20.531Z,7.80
2023-01-03T19:55:52.044Z,15.55
2023-01-03T19:58:26.895Z,7.82
2023-01-03T20:00:54.919Z,13.27
2023-01-03T20:03:38.887Z,9.30
2023-01-03T20:06:11.390Z,9.73
2023-01-03T20:08:38.946Z,7.40
2023-01-03T20:11:15.943Z,9.20
2023-01-03T20:13:43.695Z,8.20
2023-01-03T20:16:13.296Z,9.27
2023-01-03T20:18:43.354Z,9.63
2023-01-03T20:21:30.605Z,11.70
2023-01-03T20:24:02.801Z,8.52
2023-01-03T20:26:33.682Z,8.50
2023-01-03T20:29:01.156Z,10.60
2023-01-03T20:31:28.956Z,8.73
2023-01-03T20:33:56.972Z,8.45
2023-01-03T20:36:40.091Z,7.93
2023-01-03T20:39:25.217Z,8.25
2023-01-03T20:41:52.751Z,9.00
2023-01-03T20:44:20.662Z,12.80
2023-01-03T20:46:48.382Z,6.88
2023-01-03T20:49:27.893Z,11.52
2023-01-03T20:51:55.355Z,9.02
2023-01-03T20:54:22.842Z,7.95
2023-01-03T20:56:50.323Z,10.10
2023-01-03T20:59:20.769Z,8.52
2023-01-03T21:01:49.057Z,9.85
2023-01-03T21:04:17.173Z,10.85
2023-01-03T21:06:45.466Z,9.80
2023-01-03T21:09:14.204Z,8.55
2023-01-03T21:11:43.056Z,8.35
2023-01-03T21:14:10.556Z,11.15
2023-01-03T21:16:46.231Z,8.43
2023-01-03T21:19:23.357Z,9.05
2023-01-03T21:21:54.314Z,10.90
2023-01-03T21:24:24.253Z,6.65
2023-01-03T21:26:51.976Z,9.40
2023-01-03T21:29:19.393Z,9.98
2023-01-03T21:31:47.068Z,10.63
2023-01-03T21:34:19.901Z,10.88
2023-01-03T21:36:49.631Z,8.98
2023-01-03T21:39:17.212Z,10.48
2023-01-03T21:42:03.589Z,8.68
2023-01-03T21:44:31.041Z,8.85
2023-01-03T21:46:58.593Z,8.63
2023-01-03T21:49:26.032Z,10.68
2023-01-03T21:51:53.472Z,8.23
2023-01-03T21:54:20.994Z,6.70
2023-01-03T21:56:49.041Z,10.07
2023-01-03T21:59:17.552Z,7.82
2023-01-03T22:02:05.381Z,8.00
2023-01-03T22:04:33.667Z,8.95
2023-01-03T22:07:01.872Z,8.65
2023-01-03T22:09:50.093Z,13.20
2023-01-03T22:12:19.544Z,8.57
2023-01-03T22:14:47.854Z,10.60
2023-01-03T22:17:16.343Z,11.18
2023-01-03T22:19:46.207Z,10.23
2023-01-03T22:22:13.701Z,9.55
2023-01-03T22:24:41.166Z,6.80
2023-01-03T22:27:08.627Z,10.15
2023-01-03T22:29:36.101Z,8.27
2023-01-03T22:32:03.872Z,9.52
2023-01-03T22:34:31.358Z,7.65
2023-01-03T22:36:58.802Z,10.38
2023-01-03T22:39:26.280Z,8.90
2023-01-03T22:41:53.816Z,6.40
2023-01-03T22:44:21.287Z,8.02
2023-01-03T22:46:48.814Z,9.15
2023-01-03T22:49:16.226Z,6.60
2023-01-03T22:51:43.703Z,7.13
2023-01-03T22:54:11.259Z,8.43
2023-01-03T22:56:38.681Z,10.23
2023-01-03T22:59:06.224Z,8.48
2023-01-03T23:01:34.171Z,9.90
2023-01-03T23:04:03.219Z,8.88
2023-01-03T23:06:35.071Z,6.95
2023-01-03T23:09:04.004Z,11.38
2023-01-03T23:11:51.640Z,10.32
2023-01-03T23:14:22.550Z,8.27
2023-01-03T23:16:52.020Z,8.43
2023-01-03T23:19:23.176Z,7.70
2023-01-03T23:21:52.695Z,7.90
2023-01-03T23:24:24.425Z,7.72
2023-01-03T23:29:21.152Z,8.75
2023-01-03T23:31:48.796Z,7.10
2023-01-03T23:34:16.304Z,9.13
2023-01-03T23:36:44.178Z,8.73
2023-01-03T23:39:18.247Z,7.20
2023-01-03T23:41:46.999Z,8.30
2023-01-03T23:44:14.938Z,7.75
2023-01-03T23:46:42.751Z,9.55
2023-01-03T23:49:12.679Z,8.70
2023-01-03T23:51:41.140Z,8.65
2023-01-03T23:54:09.284Z,6.47
2023-01-03T23:56:37.660Z,6.85
2023-01-03T23:59:05.452Z,7.78
